Time;durP1;ratioP1;P1;durP2;ratioP2;P2;SDS_P1;SDS_P2;PMS_P1;PMS_P2;Temp;Humidity;BMP_temperature;BMP_pressure;BME280_temperature;BME280_humidity;BME280_pressure;Samples;Min_cycle;Max_cycle;Signal;HPM_P1;HPM_P2
2023/04/30 00:00:10;;;;;;;6.10;3.60;;;21.40;68.50;;;;;;5121216;27;20197;-58
2023/04/30 00:02:37;;;;;;;3.30;2.60;;;21.40;68.60;;;;;;5122556;27;20193;-57
2023/04/30 00:05:04;;;;;;;6.30;3.13;;;21.40;68.50;;;;;;5113851;27;20193;-57
2023/04/30 00:07:32;;;;;;;4.43;2.80;;;21.40;68.60;;;;;;5128310;27;20197;-56
2023/04/30 00:09:59;;;;;;;4.25;3.28;;;21.40;68.60;;;;;;5118625;27;20201;-57
2023/04/30 00:12:26;;;;;;;6.15;3.50;;;21.30;68.50;;;;;;5129342;27;20196;-57
2023/04/30 00:14:55;;;;;;;3.85;2.50;;;21.30;68.40;;;;;;5122550;27;20645;-61
2023/04/30 00:17:21;;;;;;;6.68;3.17;;;21.30;68.40;;;;;;5122282;27;20223;-58
2023/04/30 00:19:49;;;;;;;6.10;3.00;;;21.30;68.40;;;;;;5123831;27;20196;-58
2023/04/30 00:22:15;;;;;;;6.43;3.65;;;21.30;68.40;;;;;;5109276;27;20244;-58
2023/04/30 00:24:43;;;;;;;5.15;3.17;;;21.30;68.40;;;;;;5123945;27;20301;-56
2023/04/30 00:27:10;;;;;;;3.70;2.80;;;21.30;68.50;;;;;;5122884;27;20619;-61
2023/04/30 00:29:37;;;;;;;2.67;2.08;;;21.30;68.50;;;;;;5118732;27;20675;-62
2023/04/30 00:32:05;;;;;;;4.20;3.20;;;21.30;68.60;;;;;;5123814;27;20193;-58
2023/04/30 00:34:31;;;;;;;3.78;2.92;;;21.30;68.40;;;;;;5126788;27;20189;-60
2023/04/30 00:36:58;;;;;;;5.03;3.70;;;21.30;68.40;;;;;;5126572;27;20323;-57
2023/04/30 00:39:25;;;;;;;3.95;3.50;;;21.20;68.30;;;;;;5122206;27;20200;-58
2023/04/30 00:41:53;;;;;;;5.53;3.47;;;21.30;68.40;;;;;;5123904;27;20193;-62
2023/04/30 00:44:19;;;;;;;3.78;2.92;;;21.20;68.20;;;;;;5110840;27;20189;-58
2023/04/30 00:46:46;;;;;;;4.32;3.08;;;21.20;68.20;;;;;;5125288;27;20250;-58
2023/04/30 00:49:13;;;;;;;3.85;2.92;;;21.20;68.30;;;;;;5128847;27;20201;-59
2023/04/30 00:51:41;;;;;;;3.55;2.92;;;21.20;68.20;;;;;;5107660;27;20250;-59
2023/04/30 00:54:08;;;;;;;2.97;2.50;;;21.20;68.30;;;;;;5121668;27;20211;-61
2023/04/30 00:56:35;;;;;;;2.35;2.15;;;21.20;68.20;;;;;;5129028;27;20531;-60
2023/04/30 00:59:04;;;;;;;2.80;2.60;;;21.20;68.20;;;;;;5120933;27;20281;-60
2023/04/30 01:01:30;;;;;;;4.50;2.83;;;21.20;68.20;;;;;;5111863;27;20197;-58
2023/04/30 01:03:57;;;;;;;4.80;2.72;;;21.20;68.30;;;;;;5123234;27;20224;-62
2023/04/30 01:06:25;;;;;;;3.20;2.35;;;21.20;68.20;;;;;;5120664;27;20222;-57
2023/04/30 01:08:52;;;;;;;3.10;1.98;;;21.10;68.10;;;;;;5110533;27;20197;-59
2023/04/30 01:11:28;;;;;;;3.92;2.33;;;21.10;68.20;;;;;;5112309;27;20197;-60
2023/04/30 01:14:04;;;;;;;2.72;2.47;;;21.10;68.10;;;;;;5127145;27;20269;-57
2023/04/30 01:16:38;;;;;;;3.90;2.40;;;21.10;68.20;;;;;;5107493;27;20213;-58
2023/04/30 01:19:10;;;;;;;3.45;2.30;;;21.10;68.10;;;;;;5127287;27;20193;-54
2023/04/30 01:21:41;;;;;;;4.13;2.90;;;21.10;68.10;;;;;;5123695;27;20220;-59
2023/04/30 01:24:25;;;;;;;2.65;2.28;;;21.10;68.10;;;;;;5111793;27;20565;-58
2023/04/30 01:27:07;;;;;;;3.15;1.90;;;21.10;68.10;;;;;;5107992;27;20212;-59
2023/04/30 01:29:37;;;;;;;3.55;2.78;;;21.10;68.10;;;;;;5115478;27;20189;-60
2023/04/30 01:32:04;;;;;;;2.25;1.98;;;21.10;68.20;;;;;;5127885;27;20226;-57
2023/04/30 01:34:31;;;;;;;2.53;2.33;;;21.00;68.00;;;;;;5124733;27;20223;-57
2023/04/30 01:37:14;;;;;;;3.88;2.60;;;21.00;68.00;;;;;;5121093;27;20216;-58
2023/04/30 01:39:58;;;;;;;4.75;2.42;;;21.00;68.00;;;;;;5119253;27;20197;-61
2023/04/30 01:42:32;;;;;;;3.13;2.83;;;21.00;68.00;;;;;;5125904;27;20253;-56
2023/04/30 01:45:19;;;;;;;3.15;2.45;;;21.00;68.80;;;;;;5122582;27;20257;-58
2023/04/30 01:47:52;;;;;;;2.95;2.63;;;21.00;67.90;;;;;;5127829;27;20211;-61
2023/04/30 01:50:28;;;;;;;3.65;2.72;;;21.00;67.90;;;;;;5123080;27;20196;-58
2023/04/30 01:52:59;;;;;;;2.45;2.25;;;21.00;68.00;;;;;;5129495;27;20197;-59
2023/04/30 01:55:34;;;;;;;3.63;2.88;;;21.00;67.90;;;;;;5126643;27;20313;-58
2023/04/30 01:58:05;;;;;;;5.43;3.13;;;21.00;67.90;;;;;;5120668;27;20223;-56
2023/04/30 02:00:33;;;;;;;3.13;2.20;;;21.00;67.90;;;;;;5125868;27;20730;-59
2023/04/30 02:03:00;;;;;;;3.53;2.80;;;20.90;67.80;;;;;;5119361;28;20193;-55
2023/04/30 02:05:27;;;;;;;3.05;2.38;;;21.00;67.90;;;;;;5120997;27;20287;-57
2023/04/30 02:07:54;;;;;;;5.00;3.08;;;21.00;67.90;;;;;;5118689;27;20597;-54
2023/04/30 02:10:22;;;;;;;4.65;2.63;;;21.00;67.90;;;;;;5123751;27;20269;-59
2023/04/30 02:12:49;;;;;;;3.85;2.55;;;21.00;67.80;;;;;;5122950;27;20579;-55
2023/04/30 02:15:16;;;;;;;4.18;2.38;;;20.90;67.70;;;;;;5117325;28;20283;-57
2023/04/30 02:17:44;;;;;;;5.63;2.15;;;20.90;67.70;;;;;;5116297;28;20258;-57
2023/04/30 02:20:11;;;;;;;3.63;2.35;;;20.90;67.80;;;;;;5121790;27;20328;-59
2023/04/30 02:22:38;;;;;;;2.30;1.92;;;20.90;67.70;;;;;;5112691;27;20217;-59
2023/04/30 02:25:06;;;;;;;2.55;2.15;;;20.90;67.70;;;;;;5123085;27;20661;-57
2023/04/30 02:27:33;;;;;;;3.03;2.08;;;20.90;67.70;;;;;;5115961;27;20695;-57
2023/04/30 02:30:00;;;;;;;4.40;2.63;;;20.90;67.70;;;;;;5120529;27;20672;-57
2023/04/30 02:32:27;;;;;;;2.95;1.95;;;20.90;67.70;;;;;;5126281;27;20207;-57
2023/04/30 02:34:55;;;;;;;2.03;1.83;;;20.90;67.70;;;;;;5126847;27;20193;-60
2023/04/30 02:37:22;;;;;;;3.67;2.47;;;20.90;67.60;;;;;;5124939;27;20224;-59
2023/04/30 02:39:49;;;;;;;2.60;2.40;;;20.90;67.60;;;;;;5125348;27;20377;-57
2023/04/30 02:42:15;;;;;;;4.22;3.88;;;20.90;67.60;;;;;;5130062;27;20203;-61
2023/04/30 02:44:42;;;;;;;4.15;2.70;;;20.80;67.50;;;;;;5112772;27;20193;-58
2023/04/30 02:47:09;;;;;;;4.15;2.28;;;20.90;67.60;;;;;;5122095;27;20745;-57
2023/04/30 02:49:36;;;;;;;2.55;2.35;;;20.90;67.60;;;;;;5129100;27;20617;-55
2023/04/30 02:52:04;;;;;;;5.65;2.25;;;20.90;67.50;;;;;;5116484;27;20695;-63
2023/04/30 02:54:31;;;;;;;3.00;2.80;;;20.90;67.60;;;;;;5118164;27;20196;-58
2023/04/30 02:56:58;;;;;;;3.55;2.05;;;20.80;67.50;;;;;;5128334;27;20269;-60
2023/04/30 02:59:24;;;;;;;3.70;2.53;;;20.80;67.40;;;;;;5116427;27;20201;-55
2023/04/30 03:01:51;;;;;;;3.20;2.35;;;20.80;67.50;;;;;;5108989;27;20715;-60
2023/04/30 03:04:18;;;;;;;3.58;2.92;;;20.80;67.40;;;;;;5126604;27;20622;-59
2023/04/30 03:06:44;;;;;;;3.58;2.17;;;20.80;67.40;;;;;;5124093;27;20192;-56
2023/04/30 03:09:13;;;;;;;4.53;3.13;;;20.80;67.30;;;;;;5117226;27;20678;-56
2023/04/30 03:11:40;;;;;;;2.35;1.90;;;20.80;67.30;;;;;;5126611;27;20696;-57
2023/04/30 03:14:07;;;;;;;2.85;2.50;;;20.80;67.40;;;;;;5122170;27;20697;-57
2023/04/30 03:16:33;;;;;;;2.67;1.85;;;20.80;67.40;;;;;;5111597;27;20596;-62
2023/04/30 03:19:00;;;;;;;2.40;2.00;;;20.80;67.30;;;;;;5114335;27;20327;-59
2023/04/30 03:21:27;;;;;;;2.92;2.03;;;20.80;67.30;;;;;;5127090;27;20194;-58
2023/04/30 03:23:53;;;;;;;2.58;2.22;;;20.80;67.20;;;;;;5116739;27;20382;-59
2023/04/30 03:26:21;;;;;;;2.03;1.83;;;20.80;67.20;;;;;;5126463;27;20188;-60
2023/04/30 03:28:48;;;;;;;3.15;1.60;;;20.80;67.30;;;;;;5126174;27;20192;-60
2023/04/30 03:31:15;;;;;;;2.80;2.20;;;20.80;67.30;;;;;;5120910;27;20193;-58
2023/04/30 03:33:42;;;;;;;2.53;2.00;;;20.70;67.20;;;;;;5132487;27;20461;-58
2023/04/30 03:36:09;;;;;;;4.40;2.10;;;20.80;67.30;;;;;;5118089;27;20201;-58
2023/04/30 03:38:35;;;;;;;2.70;2.10;;;20.70;67.10;;;;;;5129008;27;20688;-57
2023/04/30 03:41:02;;;;;;;2.30;1.80;;;20.70;67.20;;;;;;5127551;27;20824;-58
2023/04/30 03:43:30;;;;;;;3.03;2.25;;;20.70;67.10;;;;;;5121253;27;20197;-58
2023/04/30 03:45:57;;;;;;;3.10;2.20;;;20.70;67.20;;;;;;5112817;27;20567;-61
2023/04/30 03:48:24;;;;;;;2.13;1.70;;;20.70;67.10;;;;;;5111011;27;20273;-57
2023/04/30 03:50:50;;;;;;;3.25;2.15;;;20.70;67.10;;;;;;5130421;27;20668;-59
2023/04/30 03:53:17;;;;;;;2.75;2.00;;;20.70;67.10;;;;;;5120994;27;20213;-57
2023/04/30 03:55:44;;;;;;;2.70;2.38;;;20.70;67.00;;;;;;5126251;27;20190;-58
2023/04/30 03:58:10;;;;;;;2.70;1.88;;;20.70;67.10;;;;;;5121474;27;20274;-62
2023/04/30 04:00:40;;;;;;;1.77;1.60;;;20.70;67.10;;;;;;5108474;27;20201;-60
2023/04/30 04:03:07;;;;;;;2.40;2.20;;;20.70;67.10;;;;;;5125622;27;20201;-56
2023/04/30 04:05:33;;;;;;;2.50;1.70;;;20.70;67.10;;;;;;5130176;27;20197;-57
2023/04/30 04:08:00;;;;;;;3.67;2.80;;;20.70;67.10;;;;;;5124217;27;21142;-57
2023/04/30 04:10:27;;;;;;;2.78;2.40;;;20.70;67.10;;;;;;5122673;27;20200;-58
2023/04/30 04:12:53;;;;;;;2.42;1.90;;;20.70;67.10;;;;;;5123312;27;20657;-55
2023/04/30 04:15:20;;;;;;;3.35;2.58;;;20.70;67.10;;;;;;5124296;27;20246;-60
2023/04/30 04:17:48;;;;;;;2.33;1.90;;;20.60;67.00;;;;;;5121773;27;20741;-60
2023/04/30 04:20:15;;;;;;;2.28;2.08;;;20.60;67.00;;;;;;5117987;27;20196;-57
2023/04/30 04:22:41;;;;;;;1.63;1.35;;;20.70;67.10;;;;;;5119399;27;20217;-59
2023/04/30 04:25:09;;;;;;;2.30;2.05;;;20.70;67.10;;;;;;5123738;27;20197;-56
2023/04/30 04:27:36;;;;;;;3.00;1.80;;;20.60;67.00;;;;;;5115383;27;20285;-58
2023/04/30 04:30:03;;;;;;;2.30;2.10;;;20.60;67.80;;;;;;5122480;27;20194;-57
2023/04/30 04:32:31;;;;;;;1.98;1.52;;;20.60;66.90;;;;;;5129240;27;20197;-55
2023/04/30 04:34:59;;;;;;;3.55;2.22;;;20.60;66.90;;;;;;5122147;27;20284;-57
2023/04/30 04:37:26;;;;;;;2.67;2.40;;;20.60;66.90;;;;;;5124334;27;20588;-57
2023/04/30 04:39:52;;;;;;;3.17;2.35;;;20.60;66.80;;;;;;5123107;27;20295;-53
2023/04/30 04:42:20;;;;;;;3.25;2.00;;;20.60;66.90;;;;;;5123889;27;20219;-58
2023/04/30 04:44:46;;;;;;;2.92;1.95;;;20.60;66.90;;;;;;5125745;27;20241;-61
2023/04/30 04:47:15;;;;;;;2.67;2.17;;;20.60;66.90;;;;;;5121858;27;20718;-59
2023/04/30 04:49:42;;;;;;;1.90;1.80;;;20.60;66.80;;;;;;5129957;27;20667;-59
2023/04/30 04:52:10;;;;;;;2.35;2.00;;;20.60;66.80;;;;;;5119821;27;20670;-56
2023/04/30 04:54:36;;;;;;;1.85;1.70;;;20.60;66.90;;;;;;5125403;27;20249;-57
2023/04/30 04:57:03;;;;;;;3.42;2.35;;;20.60;66.80;;;;;;5125655;27;20192;-58
2023/04/30 04:59:30;;;;;;;2.05;1.85;;;20.60;66.80;;;;;;5118727;27;20229;-60
2023/04/30 05:01:56;;;;;;;2.83;1.70;;;20.60;66.90;;;;;;5115870;27;20200;-57
2023/04/30 05:04:23;;;;;;;3.05;1.95;;;20.60;66.80;;;;;;5119058;27;20193;-58
2023/04/30 05:06:50;;;;;;;2.45;1.85;;;20.50;66.70;;;;;;5127443;27;20189;-58
2023/04/30 05:09:18;;;;;;;2.03;1.50;;;20.60;66.80;;;;;;5122694;27;20250;-61
2023/04/30 05:11:45;;;;;;;2.92;1.88;;;20.50;66.70;;;;;;5128454;27;20189;-58
2023/04/30 05:14:11;;;;;;;2.47;1.98;;;20.60;66.80;;;;;;5117645;27;20250;-60
2023/04/30 05:16:38;;;;;;;2.20;2.00;;;20.50;66.80;;;;;;5123003;27;20564;-54
2023/04/30 05:19:05;;;;;;;2.80;2.20;;;20.50;66.80;;;;;;5111598;27;20216;-58
2023/04/30 05:21:32;;;;;;;2.20;1.80;;;20.50;66.80;;;;;;5132236;27;20649;-58
2023/04/30 05:23:59;;;;;;;2.10;1.75;;;20.60;66.80;;;;;;5123889;27;20197;-58
2023/04/30 05:26:27;;;;;;;2.03;1.92;;;20.60;66.90;;;;;;5111891;27;20192;-60
2023/04/30 05:28:54;;;;;;;2.28;1.80;;;20.60;66.90;;;;;;5116376;27;20631;-56
2023/04/30 05:31:20;;;;;;;2.40;1.92;;;20.60;66.90;;;;;;5111599;27;20668;-59
2023/04/30 05:33:47;;;;;;;3.28;2.10;;;20.70;67.00;;;;;;5111709;27;20229;-58
2023/04/30 05:36:14;;;;;;;3.75;1.90;;;20.60;66.80;;;;;;5122216;27;20520;-60
2023/04/30 05:38:41;;;;;;;2.42;1.92;;;20.70;67.00;;;;;;5124100;27;20239;-57
2023/04/30 05:41:10;;;;;;;2.85;2.15;;;20.70;66.80;;;;;;5116719;27;20246;-61
2023/04/30 05:43:38;;;;;;;1.95;1.80;;;20.70;66.90;;;;;;5124747;27;20197;-58
2023/04/30 05:46:05;;;;;;;2.33;1.67;;;20.70;66.90;;;;;;5123991;27;20201;-59
2023/04/30 05:48:31;;;;;;;4.40;2.15;;;20.70;67.70;;;;;;5120351;27;20258;-57
2023/04/30 05:50:58;;;;;;;2.08;1.75;;;20.70;66.80;;;;;;5119822;27;20197;-56
2023/04/30 05:53:25;;;;;;;2.10;1.80;;;20.70;67.00;;;;;;5117773;27;20213;-53
2023/04/30 05:55:51;;;;;;;2.85;1.80;;;20.70;66.80;;;;;;5123753;27;20214;-62
2023/04/30 05:58:18;;;;;;;1.88;1.73;;;20.70;66.80;;;;;;5125133;27;20626;-59
2023/04/30 06:00:49;;;;;;;1.67;1.58;;;20.70;66.80;;;;;;5118911;27;20587;-57
2023/04/30 06:03:15;;;;;;;1.63;1.52;;;20.70;66.80;;;;;;5120673;28;20610;-54
2023/04/30 06:05:43;;;;;;;2.15;1.50;;;20.80;66.90;;;;;;5117178;28;20192;-60
2023/04/30 06:08:09;;;;;;;1.92;1.50;;;20.80;66.90;;;;;;5117793;28;20207;-58
2023/04/30 06:10:36;;;;;;;2.78;2.20;;;20.80;66.80;;;;;;5124522;28;20254;-60
2023/04/30 06:13:03;;;;;;;1.98;1.80;;;20.80;66.80;;;;;;5115093;28;20222;-60
2023/04/30 06:15:30;;;;;;;1.70;1.40;;;20.80;66.80;;;;;;5117530;28;20201;-59
2023/04/30 06:17:58;;;;;;;1.80;1.50;;;20.80;66.80;;;;;;5121501;27;20217;-58
2023/04/30 06:20:26;;;;;;;2.63;1.83;;;20.80;66.70;;;;;;5124476;28;20201;-56
2023/04/30 06:22:52;;;;;;;2.50;2.30;;;20.90;66.90;;;;;;5121510;28;20221;-59
2023/04/30 06:25:20;;;;;;;3.17;1.65;;;20.90;66.80;;;;;;5123229;27;20654;-58
2023/04/30 06:27:46;;;;;;;2.22;2.00;;;20.90;66.80;;;;;;5122934;28;20283;-58
2023/04/30 06:30:13;;;;;;;1.70;1.60;;;20.90;66.80;;;;;;5115816;27;20186;-58
2023/04/30 06:32:40;;;;;;;1.85;1.60;;;20.90;66.70;;;;;;5116959;28;20269;-58
2023/04/30 06:35:09;;;;;;;2.22;1.80;;;20.90;66.70;;;;;;5125455;28;20649;-59
2023/04/30 06:37:36;;;;;;;2.10;1.90;;;21.00;66.80;;;;;;5116885;28;20269;-58
2023/04/30 06:40:04;;;;;;;1.90;1.75;;;20.90;66.70;;;;;;5121606;28;20236;-61
2023/04/30 06:42:33;;;;;;;1.73;1.52;;;20.90;66.70;;;;;;5124630;28;20244;-56
2023/04/30 06:45:00;;;;;;;1.83;1.67;;;20.90;66.70;;;;;;5109789;27;20201;-60
2023/04/30 06:47:26;;;;;;;2.55;1.35;;;21.00;66.70;;;;;;5127278;27;20284;-60
2023/04/30 06:49:53;;;;;;;2.05;1.85;;;21.00;66.80;;;;;;5123861;27;20246;-60
2023/04/30 06:52:21;;;;;;;1.88;1.55;;;21.00;66.80;;;;;;5124516;27;20201;-57
2023/04/30 06:54:48;;;;;;;2.42;1.40;;;21.00;66.80;;;;;;5124890;28;20284;-58
2023/04/30 06:57:14;;;;;;;2.00;1.73;;;21.00;66.70;;;;;;5127334;28;20258;-61
2023/04/30 06:59:41;;;;;;;3.67;2.03;;;21.00;66.70;;;;;;5120590;27;20262;-58
2023/04/30 07:02:07;;;;;;;2.17;1.75;;;21.00;67.00;;;;;;5110018;27;20189;-59
2023/04/30 07:04:34;;;;;;;1.50;1.40;;;21.10;67.00;;;;;;5122661;28;20722;-52
2023/04/30 07:07:01;;;;;;;1.90;1.50;;;21.10;67.00;;;;;;5125172;28;20197;-56
2023/04/30 07:09:29;;;;;;;1.83;1.58;;;21.10;67.00;;;;;;5110811;27;20207;-56
2023/04/30 07:11:57;;;;;;;7.78;1.73;;;21.10;67.10;;;;;;5124487;27;20723;-53
2023/04/30 07:14:24;;;;;;;1.70;1.30;;;21.10;67.50;;;;;;5125328;27;20280;-55
2023/04/30 07:16:51;;;;;;;4.38;1.65;;;21.10;67.50;;;;;;5126161;27;20241;-58
2023/04/30 07:19:18;;;;;;;1.48;1.38;;;21.10;67.60;;;;;;5130799;27;20224;-55
2023/04/30 07:21:44;;;;;;;2.28;1.83;;;21.20;67.90;;;;;;5128204;27;20208;-53
2023/04/30 07:24:11;;;;;;;2.25;2.05;;;21.10;67.70;;;;;;5125310;27;20197;-53
2023/04/30 07:26:41;;;;;;;4.85;1.58;;;21.20;67.80;;;;;;5127987;27;20205;-55
2023/04/30 07:29:07;;;;;;;2.55;1.50;;;21.20;67.80;;;;;;5121546;27;20283;-54
2023/04/30 07:31:34;;;;;;;2.08;1.85;;;21.20;67.70;;;;;;5128513;27;20242;-55
2023/04/30 07:34:01;;;;;;;2.55;1.90;;;21.20;67.60;;;;;;5132018;27;20246;-59
2023/04/30 07:36:27;;;;;;;1.50;1.25;;;21.20;67.70;;;;;;5125031;27;20198;-56
2023/04/30 07:38:54;;;;;;;2.67;1.83;;;21.30;67.60;;;;;;5121629;27;20223;-52
2023/04/30 07:41:21;;;;;;;6.97;2.03;;;21.30;67.80;;;;;;5119692;27;20268;-57
2023/04/30 07:43:49;;;;;;;1.50;1.30;;;21.30;67.70;;;;;;5131686;27;20670;-56
2023/04/30 07:46:16;;;;;;;2.05;1.30;;;21.30;67.60;;;;;;5111596;27;20239;-51
2023/04/30 07:48:42;;;;;;;2.70;1.70;;;21.30;67.60;;;;;;5125506;27;20196;-55
2023/04/30 07:51:09;;;;;;;1.58;1.27;;;21.30;67.60;;;;;;5128891;27;20193;-57
2023/04/30 07:53:36;;;;;;;1.70;1.40;;;21.40;67.70;;;;;;5116642;27;20254;-56
2023/04/30 07:56:03;;;;;;;1.63;1.23;;;21.30;67.50;;;;;;5128436;27;20193;-56
2023/04/30 07:58:30;;;;;;;1.30;1.20;;;21.40;67.60;;;;;;5125270;27;20258;-56
2023/04/30 08:00:58;;;;;;;1.80;1.40;;;21.40;67.60;;;;;;5117259;27;20202;-56
2023/04/30 08:03:24;;;;;;;2.03;1.70;;;21.40;67.50;;;;;;5127448;27;20455;-53
2023/04/30 08:05:52;;;;;;;1.80;1.10;;;21.40;67.50;;;;;;5118923;27;20204;-61
2023/04/30 08:08:19;;;;;;;2.17;1.60;;;21.40;67.50;;;;;;5112255;27;20278;-55
2023/04/30 08:10:46;;;;;;;1.92;1.42;;;21.40;67.50;;;;;;5129536;27;20535;-54
2023/04/30 08:13:12;;;;;;;1.90;1.40;;;21.40;67.70;;;;;;5114615;27;20200;-57
2023/04/30 08:15:39;;;;;;;1.80;1.47;;;21.50;67.90;;;;;;5121640;27;20282;-54
2023/04/30 08:18:07;;;;;;;1.73;1.48;;;21.50;67.90;;;;;;5121321;27;20451;-55
2023/04/30 08:20:34;;;;;;;1.57;1.47;;;21.50;68.00;;;;;;5122495;27;20208;-57
2023/04/30 08:23:00;;;;;;;2.22;1.50;;;21.40;68.00;;;;;;5124758;27;20509;-53
2023/04/30 08:25:27;;;;;;;1.67;1.30;;;21.50;68.10;;;;;;5122146;27;20652;-55
2023/04/30 08:27:54;;;;;;;2.20;2.00;;;21.50;68.10;;;;;;5128405;27;20246;-52
2023/04/30 08:30:21;;;;;;;1.80;1.60;;;21.50;67.90;;;;;;5126464;27;20483;-54
2023/04/30 08:32:49;;;;;;;2.00;1.40;;;21.50;68.00;;;;;;5127889;27;21020;-59
2023/04/30 08:35:16;;;;;;;2.37;1.60;;;21.50;67.90;;;;;;5126430;27;20276;-58
2023/04/30 08:37:43;;;;;;;2.33;1.33;;;21.50;67.90;;;;;;5119300;27;20439;-59
2023/04/30 08:40:11;;;;;;;2.15;1.52;;;21.50;67.80;;;;;;5122871;27;20209;-57
2023/04/30 08:42:44;;;;;;;2.88;1.30;;;21.50;67.90;;;;;;5127636;27;20277;-59
2023/04/30 08:45:13;;;;;;;1.70;1.50;;;21.50;67.70;;;;;;5112820;27;20280;-56
2023/04/30 08:47:40;;;;;;;2.80;1.88;;;21.50;67.70;;;;;;5117567;27;20193;-58
2023/04/30 08:50:08;;;;;;;2.17;1.70;;;21.50;67.70;;;;;;5129146;27;20222;-58
2023/04/30 08:52:38;;;;;;;1.58;1.40;;;21.50;67.60;;;;;;5113875;27;20207;-51
2023/04/30 08:55:08;;;;;;;1.60;1.50;;;21.50;67.60;;;;;;5126432;27;20197;-55
2023/04/30 08:57:35;;;;;;;1.45;1.02;;;21.50;67.60;;;;;;5117313;27;20197;-55
2023/04/30 09:00:02;;;;;;;1.52;1.42;;;21.50;67.60;;;;;;5117998;27;20224;-53
2023/04/30 09:02:31;;;;;;;1.65;1.20;;;21.50;67.50;;;;;;5125350;27;20717;-56
2023/04/30 09:04:58;;;;;;;2.70;1.63;;;21.50;67.50;;;;;;5117283;27;20193;-55
2023/04/30 09:07:27;;;;;;;5.70;1.50;;;21.50;68.30;;;;;;5122898;27;20267;-54
2023/04/30 09:09:56;;;;;;;1.77;1.40;;;21.50;67.50;;;;;;5115065;27;20201;-56
2023/04/30 09:12:23;;;;;;;2.55;1.50;;;21.60;67.60;;;;;;5115242;27;20939;-58
2023/04/30 09:15:01;;;;;;;1.37;1.20;;;21.60;67.40;;;;;;5114993;27;20215;-59
2023/04/30 09:17:27;;;;;;;1.70;1.60;;;21.60;67.60;;;;;;5118828;27;20454;-61
2023/04/30 09:19:54;;;;;;;1.70;1.42;;;21.60;67.70;;;;;;5109663;27;20222;-55
2023/04/30 09:22:22;;;;;;;1.20;1.10;;;21.60;67.80;;;;;;5107547;27;20715;-60
2023/04/30 09:24:51;;;;;;;4.05;1.92;;;21.60;67.80;;;;;;5125494;27;20201;-53
2023/04/30 09:27:21;;;;;;;2.03;1.58;;;21.70;68.10;;;;;;5119318;27;20200;-56
2023/04/30 09:29:48;;;;;;;3.55;1.52;;;21.70;68.20;;;;;;5117859;27;20221;-54
2023/04/30 09:32:14;;;;;;;3.30;1.60;;;21.70;68.50;;;;;;5122935;27;20653;-54
2023/04/30 09:34:42;;;;;;;1.70;1.50;;;21.70;68.70;;;;;;5124403;27;20607;-60
2023/04/30 09:37:09;;;;;;;2.45;1.30;;;21.70;68.90;;;;;;5124942;27;20564;-57
2023/04/30 09:39:47;;;;;;;3.90;2.50;;;21.70;69.20;;;;;;5115084;27;20220;-58
2023/04/30 09:42:14;;;;;;;5.57;2.13;;;21.60;67.50;;;;;;5122948;27;20195;-61
2023/04/30 09:44:43;;;;;;;2.83;2.40;;;21.50;65.90;;;;;;5119204;27;20192;-62
2023/04/30 09:47:14;;;;;;;4.45;2.83;;;21.50;64.30;;;;;;5128730;27;20273;-61
2023/04/30 09:49:43;;;;;;;5.30;2.67;;;21.40;62.40;;;;;;5117491;27;20619;-61
2023/04/30 09:52:10;;;;;;;3.25;2.90;;;21.30;61.50;;;;;;5120073;27;20196;-61
2023/04/30 09:54:37;;;;;;;6.32;2.50;;;21.30;61.20;;;;;;5127750;27;20664;-62
2023/04/30 09:57:03;;;;;;;4.50;2.92;;;21.20;60.60;;;;;;5117964;27;20189;-61
2023/04/30 09:59:32;;;;;;;3.65;2.20;;;21.20;60.00;;;;;;5119434;27;20988;-61
2023/04/30 10:02:02;;;;;;;3.80;2.80;;;21.20;60.30;;;;;;5122391;28;20653;-61
2023/04/30 10:04:32;;;;;;;5.00;2.35;;;21.20;59.90;;;;;;5119055;27;20202;-61
2023/04/30 10:07:00;;;;;;;4.22;2.85;;;21.10;59.00;;;;;;5113799;28;20777;-60
2023/04/30 10:09:32;;;;;;;5.68;2.20;;;21.10;59.10;;;;;;5119199;27;20560;-61
2023/04/30 10:12:00;;;;;;;2.05;1.77;;;21.00;58.30;;;;;;5122231;28;20205;-61
2023/04/30 10:14:33;;;;;;;3.67;2.67;;;21.00;58.50;;;;;;5124736;27;20204;-61
2023/04/30 10:17:08;;;;;;;2.28;1.55;;;21.00;58.20;;;;;;5118622;27;20279;-55
2023/04/30 10:19:40;;;;;;;3.38;2.53;;;21.00;58.20;;;;;;5118774;27;20216;-55
2023/04/30 10:22:07;;;;;;;1.80;1.50;;;21.10;59.20;;;;;;5117882;27;20800;-58
2023/04/30 10:24:34;;;;;;;1.83;1.50;;;21.10;59.80;;;;;;5120545;27;20200;-60
2023/04/30 10:27:02;;;;;;;6.25;1.40;;;21.20;61.40;;;;;;5117906;27;20193;-61
2023/04/30 10:29:29;;;;;;;12.95;2.70;;;21.30;62.60;;;;;;5116924;27;20738;-62
2023/04/30 10:31:56;;;;;;;6.78;1.80;;;21.20;61.50;;;;;;5116413;27;20238;-61
2023/04/30 10:34:34;;;;;;;6.47;1.67;;;21.20;61.90;;;;;;5112638;27;20197;-62
2023/04/30 10:37:07;;;;;;;6.10;2.40;;;21.20;62.40;;;;;;5115060;28;20200;-61
2023/04/30 10:39:35;;;;;;;2.15;1.42;;;21.30;63.40;;;;;;5123036;27;20224;-62
2023/04/30 10:42:03;;;;;;;2.65;1.52;;;21.30;63.80;;;;;;5120732;27;20219;-57
2023/04/30 10:44:33;;;;;;;4.80;2.38;;;21.40;64.00;;;;;;5116906;27;20198;-60
2023/04/30 10:47:00;;;;;;;9.30;1.70;;;21.40;64.10;;;;;;5110080;27;20296;-61
2023/04/30 10:49:28;;;;;;;3.67;1.30;;;21.50;64.30;;;;;;5124861;27;20549;-57
2023/04/30 10:51:59;;;;;;;2.23;1.10;;;21.60;64.50;;;;;;5119491;27;20450;-61
2023/04/30 10:54:27;;;;;;;3.23;1.40;;;21.60;65.00;;;;;;5120005;27;20461;-60
2023/04/30 10:56:57;;;;;;;3.33;1.10;;;21.70;65.20;;;;;;5123982;27;20537;-60
2023/04/30 10:59:24;;;;;;;1.67;1.30;;;21.70;65.90;;;;;;5126440;27;20482;-60
2023/04/30 11:02:00;;;;;;;3.87;1.80;;;21.80;65.30;;;;;;5125663;27;20457;-61
2023/04/30 11:04:28;;;;;;;1.70;1.60;;;21.80;65.40;;;;;;5125463;27;20534;-57
2023/04/30 11:07:10;;;;;;;2.00;1.47;;;21.90;65.50;;;;;;5121705;27;20985;-60
2023/04/30 11:09:40;;;;;;;2.90;1.03;;;21.90;65.60;;;;;;5113970;27;20458;-55
2023/04/30 11:12:12;;;;;;;2.17;1.10;;;21.90;65.60;;;;;;5120951;27;20831;-61
2023/04/30 11:14:43;;;;;;;1.93;1.30;;;22.00;65.70;;;;;;5117193;27;21025;-61
2023/04/30 11:17:12;;;;;;;2.00;1.13;;;22.00;65.80;;;;;;5119847;27;20439;-62
2023/04/30 11:19:59;;;;;;;6.43;1.57;;;22.00;65.80;;;;;;5116398;27;20471;-59
2023/04/30 11:22:28;;;;;;;2.10;1.47;;;22.00;65.70;;;;;;5110746;27;20589;-61
2023/04/30 11:25:04;;;;;;;2.03;1.23;;;22.10;65.80;;;;;;5119822;27;20984;-62
2023/04/30 11:27:32;;;;;;;2.60;1.50;;;22.10;65.90;;;;;;5118079;27;20494;-62
2023/04/30 11:30:00;;;;;;;1.60;1.47;;;22.10;65.80;;;;;;5118172;27;20470;-61
2023/04/30 11:32:33;;;;;;;1.20;1.00;;;22.20;65.90;;;;;;5118580;27;20466;-59
2023/04/30 11:35:02;;;;;;;1.80;1.20;;;22.20;65.90;;;;;;5119697;27;20534;-57
2023/04/30 11:37:32;;;;;;;1.50;0.97;;;22.20;65.90;;;;;;5115832;27;20464;-61
2023/04/30 11:40:01;;;;;;;1.90;1.10;;;22.30;66.00;;;;;;5113752;27;20486;-60
2023/04/30 11:42:29;;;;;;;3.20;1.10;;;22.30;66.00;;;;;;5118268;27;20458;-60
2023/04/30 11:45:03;;;;;;;1.77;1.13;;;22.30;65.90;;;;;;5121749;27;21403;-62
2023/04/30 11:47:39;;;;;;;1.60;1.00;;;22.30;65.90;;;;;;5119328;27;20454;-62
2023/04/30 11:50:08;;;;;;;2.97;1.30;;;22.30;65.80;;;;;;5128807;27;20454;-62
2023/04/30 11:52:35;;;;;;;2.00;1.10;;;22.40;66.10;;;;;;5111343;27;20462;-65
2023/04/30 11:55:05;;;;;;;2.30;1.10;;;22.40;66.00;;;;;;5118531;27;20826;-65
2023/04/30 11:57:35;;;;;;;2.30;1.37;;;22.40;66.00;;;;;;5132705;27;20438;-64
2023/04/30 12:00:10;;;;;;;2.77;1.40;;;22.40;66.10;;;;;;5111352;27;20583;-64
2023/04/30 12:02:36;;;;;;;2.60;1.40;;;22.50;66.20;;;;;;5119548;27;20477;-65
2023/04/30 12:05:03;;;;;;;1.40;1.00;;;22.50;67.10;;;;;;5128367;27;20450;-62
2023/04/30 12:07:32;;;;;;;3.93;1.40;;;22.40;66.40;;;;;;5127758;27;20492;-64
2023/04/30 12:09:59;;;;;;;2.50;1.13;;;22.50;66.60;;;;;;5123899;27;20603;-63
2023/04/30 12:12:29;;;;;;;3.73;1.27;;;22.40;66.50;;;;;;5110420;27;20459;-54
2023/04/30 12:14:56;;;;;;;3.50;1.37;;;22.50;66.50;;;;;;5110298;27;20507;-59
2023/04/30 12:17:33;;;;;;;6.23;1.10;;;22.50;66.60;;;;;;5126362;27;20467;-58
2023/04/30 12:20:00;;;;;;;2.80;1.33;;;22.50;66.50;;;;;;5119563;27;20500;-60
2023/04/30 12:22:27;;;;;;;2.50;1.33;;;22.50;66.40;;;;;;5120448;27;20617;-58
2023/04/30 12:24:56;;;;;;;1.27;1.17;;;22.50;66.40;;;;;;5120384;27;20463;-64
2023/04/30 12:27:23;;;;;;;1.70;1.07;;;22.60;66.50;;;;;;5116401;27;20474;-65
2023/04/30 12:29:53;;;;;;;1.50;1.10;;;22.50;66.30;;;;;;5111489;27;20482;-63
2023/04/30 12:32:21;;;;;;;2.23;1.50;;;22.50;66.40;;;;;;5129245;27;20439;-60
2023/04/30 12:34:48;;;;;;;2.50;1.30;;;22.60;66.60;;;;;;5126707;27;20567;-59
2023/04/30 12:37:15;;;;;;;2.40;1.53;;;22.60;66.40;;;;;;5123602;27;20450;-50
2023/04/30 12:39:42;;;;;;;1.17;1.07;;;22.60;66.50;;;;;;5120053;27;20466;-54
2023/04/30 12:42:10;;;;;;;1.20;1.03;;;22.60;66.40;;;;;;5127640;27;20468;-52
2023/04/30 12:44:44;;;;;;;1.40;0.90;;;22.60;66.50;;;;;;5126698;27;20458;-56
2023/04/30 12:47:10;;;;;;;1.40;0.97;;;22.60;66.40;;;;;;5124054;27;20478;-57
2023/04/30 12:49:38;;;;;;;1.40;1.20;;;22.70;66.50;;;;;;5118188;27;20455;-50
2023/04/30 12:52:08;;;;;;;1.93;1.23;;;22.70;66.50;;;;;;5127281;27;20558;-54